Terminal Aerodrome Forecast
Issued by NWS Charleston, WV

Current Version | Previous Version | Graphics & Text | Print | Product List | Glossary On
Versions: 1 2 3 4 5 6 7 8 9 10 11 12 13 14 15 16 17 18 19 20 21 22 23 24 25 26
000
FTUS41 KRLX 271000 CCA
TAFBKW
TAF COR
KBKW 271011Z 2709/2806 00000KT 1/2SM -SN FG OVC002
     FM271100 00000KT 2SM -SN BR BKN015 OVC035
     FM271500 30008G16KT 3SM -SHSN BR OVC010
     FM271900 30010G16KT 6SM BR BKN020=

USA.gov is the U.S. government's official web portal to all federal, state and local government web resources and services.